createdAt,value
2019-04-21T00:02:22.859Z,66.60
2019-04-21T00:05:12.760Z,66.70
2019-04-21T00:07:36.296Z,67.00
2019-04-21T00:10:12.510Z,67.30
2019-04-21T00:12:40.843Z,67.90
2019-04-21T00:15:09.808Z,68.00
2019-04-21T00:17:31.613Z,68.40
2019-04-21T00:20:15.749Z,68.60
2019-04-21T00:22:47.939Z,69.00
2019-04-21T00:25:25.261Z,69.20
2019-04-21T00:27:58.956Z,69.80
2019-04-21T00:30:34.254Z,70.10
2019-04-21T00:32:58.012Z,69.90
2019-04-21T00:35:21.077Z,70.00
2019-04-21T00:38:15.406Z,70.30
2019-04-21T00:40:45.057Z,70.60
2019-04-21T00:43:13.666Z,71.00
2019-04-21T00:45:38.543Z,71.70
2019-04-21T00:48:25.522Z,71.80
2019-04-21T00:51:10.981Z,72.60
2019-04-21T00:53:40.109Z,73.30
2019-04-21T00:58:39.017Z,73.80
2019-04-21T01:01:01.869Z,74.60
2019-04-21T01:03:40.159Z,73.70
2019-04-21T01:06:13.062Z,74.20
2019-04-21T01:08:41.413Z,74.20
2019-04-21T01:11:18.870Z,74.20
2019-04-21T01:13:53.349Z,74.60
2019-04-21T01:16:20.926Z,74.90
2019-04-21T01:18:51.692Z,75.40
2019-04-21T01:21:13.735Z,75.60
2019-04-21T01:23:35.842Z,76.40
2019-04-21T01:26:19.400Z,76.60
2019-04-21T01:28:58.390Z,77.60
2019-04-21T01:31:24.264Z,78.30
2019-04-21T01:34:05.673Z,78.90
2019-04-21T01:36:34.616Z,78.60
2019-04-21T01:39:18.169Z,78.70
2019-04-21T01:41:46.372Z,78.80
2019-04-21T01:44:14.652Z,78.90
2019-04-21T01:46:40.870Z,79.30
2019-04-21T01:49:08.891Z,79.50
2019-04-21T01:52:03.129Z,80.20
2019-04-21T01:55:00.214Z,80.50
2019-04-21T01:57:47.102Z,80.90
2019-04-21T02:00:13.114Z,81.70
2019-04-21T02:02:59.462Z,82.20
2019-04-21T02:05:37.483Z,83.70
2019-04-21T02:08:02.551Z,84.40
2019-04-21T02:10:41.507Z,86.00
2019-04-21T02:13:07.188Z,85.70
2019-04-21T02:15:45.187Z,85.90
2019-04-21T02:18:15.908Z,86.00
2019-04-21T02:20:34.498Z,86.70
2019-04-21T02:23:27.920Z,87.20
2019-04-21T02:25:51.008Z,87.10
2019-04-21T02:28:29.676Z,87.90
2019-04-21T02:33:40.964Z,88.20
2019-04-21T02:38:52.883Z,88.80
2019-04-21T02:41:09.457Z,89.40
2019-04-21T02:43:46.534Z,89.60
2019-04-21T02:46:27.093Z,90.10
2019-04-21T02:51:27.976Z,90.20
2019-04-21T02:54:22.848Z,90.40
2019-04-21T02:56:33.814Z,90.50
2019-04-21T02:59:29.102Z,90.60
2019-04-21T03:02:07.878Z,90.80
2019-04-21T03:05:11.645Z,91.30
2019-04-21T03:07:34.446Z,91.20
2019-04-21T03:10:12.366Z,91.00
2019-04-21T03:12:38.500Z,91.40
2019-04-21T03:15:25.570Z,91.60
2019-04-21T03:17:49.869Z,91.70
2019-04-21T03:20:19.030Z,91.80
2019-04-21T03:22:58.208Z,91.70
2019-04-21T03:25:33.207Z,91.80
2019-04-21T03:30:45.159Z,92.00
2019-04-21T03:38:13.039Z,92.50
2019-04-21T03:40:32.258Z,92.60
2019-04-21T03:45:54.683Z,92.80
2019-04-21T03:48:23.182Z,92.90
2019-04-21T03:50:47.367Z,92.80
2019-04-21T03:53:20.509Z,92.70
2019-04-21T03:55:53.083Z,92.90
2019-04-21T03:58:46.402Z,93.10
2019-04-21T04:01:21.984Z,93.40
2019-04-21T04:07:18.626Z,93.80
2019-04-21T04:09:52.351Z,93.80
2019-04-21T04:12:23.070Z,93.80
2019-04-21T04:15:12.426Z,93.60
2019-04-21T04:17:40.477Z,93.70
2019-04-21T04:20:26.194Z,93.90
2019-04-21T04:22:55.405Z,93.80
2019-04-21T04:25:33.826Z,93.70
2019-04-21T04:30:31.647Z,93.90
2019-04-21T04:33:01.232Z,94.00
2019-04-21T04:35:48.956Z,94.10
2019-04-21T04:38:03.566Z,94.30
2019-04-21T04:40:38.348Z,94.40
2019-04-21T04:43:19.805Z,94.30
2019-04-21T04:48:25.322Z,94.20
2019-04-21T04:50:53.081Z,94.60
2019-04-21T04:53:31.017Z,94.50
2019-04-21T04:56:20.474Z,94.60
2019-04-21T04:58:53.872Z,94.60
2019-04-21T05:01:14.268Z,94.80
2019-04-21T05:09:15.287Z,94.30
2019-04-21T05:14:11.598Z,94.20
2019-04-21T05:19:18.135Z,94.30
2019-04-21T05:24:00.026Z,94.30
2019-04-21T05:26:36.053Z,94.00
2019-04-21T05:29:02.687Z,93.80
2019-04-21T05:32:13.351Z,93.70
2019-04-21T05:34:31.556Z,93.50
2019-04-21T05:37:14.302Z,93.40
2019-04-21T05:40:10.643Z,93.40
2019-04-21T05:42:44.145Z,93.40
2019-04-21T05:45:23.032Z,93.30
2019-04-21T05:48:11.647Z,93.30
2019-04-21T05:50:34.944Z,93.30
2019-04-21T05:53:01.851Z,93.30
2019-04-21T05:55:46.651Z,93.30
2019-04-21T05:58:06.983Z,93.00
2019-04-21T06:03:36.757Z,93.00
2019-04-21T06:06:10.021Z,93.00
2019-04-21T06:08:38.947Z,92.90
2019-04-21T06:11:08.547Z,92.90
2019-04-21T06:16:14.363Z,92.70
2019-04-21T06:18:48.794Z,92.30
2019-04-21T06:21:16.442Z,92.00
2019-04-21T06:23:45.633Z,91.90
2019-04-21T06:28:57.861Z,91.60
2019-04-21T06:31:57.811Z,91.40
2019-04-21T06:33:57.595Z,91.20
2019-04-21T06:36:56.653Z,91.00
2019-04-21T06:39:30.477Z,90.70
2019-04-21T06:41:58.478Z,90.60
2019-04-21T06:44:33.111Z,90.20
2019-04-21T06:47:13.481Z,89.90
2019-04-21T06:49:36.906Z,89.20
2019-04-21T06:52:13.332Z,91.00
2019-04-21T06:55:07.304Z,89.10
2019-04-21T06:57:16.894Z,88.70
2019-04-21T06:59:43.553Z,88.50
2019-04-21T07:02:36.183Z,88.30
2019-04-21T07:04:58.990Z,88.30
2019-04-21T07:07:21.799Z,87.50
2019-04-21T07:09:55.066Z,86.90
2019-04-21T07:14:58.925Z,86.00
2019-04-21T07:17:46.969Z,86.10
2019-04-21T07:20:07.409Z,85.40
2019-04-21T07:25:28.179Z,84.10
2019-04-21T07:27:59.364Z,83.90
2019-04-21T07:30:22.555Z,83.50
2019-04-21T07:32:59.442Z,82.70
2019-04-21T07:35:23.592Z,82.90
2019-04-21T07:37:53.432Z,84.30
2019-04-21T07:40:22.267Z,82.50
2019-04-21T07:42:52.616Z,81.70
2019-04-21T07:45:22.436Z,83.50
2019-04-21T07:48:01.626Z,83.00
2019-04-21T07:51:02.139Z,83.50
2019-04-21T07:55:49.613Z,82.40
2019-04-21T07:58:45.621Z,81.70
2019-04-21T08:01:15.921Z,81.60
2019-04-21T08:03:49.076Z,81.70
2019-04-21T08:06:25.324Z,80.00
2019-04-21T08:08:47.672Z,79.10
2019-04-21T08:11:15.080Z,79.80
2019-04-21T08:13:51.787Z,79.80
2019-04-21T08:16:25.392Z,78.80
2019-04-21T08:18:58.088Z,78.50
2019-04-21T08:21:28.289Z,78.10
2019-04-21T08:24:00.161Z,78.30
2019-04-21T08:26:38.278Z,78.80
2019-04-21T08:29:13.213Z,78.70
2019-04-21T08:31:48.617Z,78.50
2019-04-21T08:34:17.856Z,78.90
2019-04-21T08:36:40.309Z,79.10
2019-04-21T08:39:17.979Z,78.60
2019-04-21T08:41:45.257Z,76.50
2019-04-21T08:44:23.191Z,76.30
2019-04-21T08:46:53.422Z,75.20
2019-04-21T08:49:22.259Z,73.90
2019-04-21T08:52:03.796Z,73.60
2019-04-21T08:54:28.130Z,73.40
2019-04-21T08:57:24.335Z,72.30
2019-04-21T09:00:05.046Z,70.90
2019-04-21T09:03:06.694Z,69.90
2019-04-21T09:05:41.051Z,69.30
2019-04-21T09:08:15.293Z,68.30
2019-04-21T09:10:40.588Z,65.80
2019-04-21T09:13:14.909Z,65.50
2019-04-21T09:15:46.212Z,65.60
2019-04-21T09:18:13.418Z,63.80
2019-04-21T09:20:53.779Z,62.50
2019-04-21T09:23:19.473Z,62.50
2019-04-21T09:26:02.156Z,62.00
2019-04-21T09:28:23.759Z,61.20
2019-04-21T09:30:46.732Z,60.30
2019-04-21T09:33:11.695Z,60.20
2019-04-21T09:35:50.148Z,60.00
2019-04-21T09:38:26.490Z,59.60
2019-04-21T09:40:49.731Z,59.40
2019-04-21T09:43:29.437Z,58.50
2019-04-21T09:45:51.947Z,57.20
2019-04-21T09:48:24.430Z,57.00
2019-04-21T09:50:55.267Z,56.70
2019-04-21T09:53:32.780Z,56.90
2019-04-21T09:56:01.754Z,57.50
2019-04-21T09:58:37.983Z,56.80
2019-04-21T10:01:12.186Z,56.10
2019-04-21T10:03:41.376Z,55.60
2019-04-21T10:06:06.842Z,55.60
2019-04-21T10:08:38.551Z,54.30
2019-04-21T10:11:09.844Z,53.60
2019-04-21T10:13:46.927Z,54.40
2019-04-21T10:16:36.396Z,55.00
2019-04-21T10:19:07.150Z,55.10
2019-04-21T10:21:38.089Z,55.70
2019-04-21T10:24:08.631Z,55.50
2019-04-21T10:26:39.064Z,55.90
2019-04-21T10:29:19.790Z,56.80
2019-04-21T10:31:42.817Z,55.20
2019-04-21T10:34:13.541Z,56.30
2019-04-21T10:36:44.847Z,57.10
2019-04-21T10:39:15.806Z,57.40
2019-04-21T10:41:47.625Z,57.20
2019-04-21T10:44:19.024Z,57.10
2019-04-21T10:46:50.725Z,57.50
2019-04-21T10:49:22.544Z,56.80
2019-04-21T10:51:53.502Z,56.20
2019-04-21T10:54:24.190Z,54.80
2019-04-21T10:56:55.031Z,54.10
2019-04-21T10:59:26.861Z,54.60
2019-04-21T11:01:57.418Z,53.80
2019-04-21T11:04:35.168Z,53.00
2019-04-21T11:07:14.377Z,51.80
2019-04-21T11:09:42.318Z,50.90
2019-04-21T11:12:13.584Z,51.20
2019-04-21T11:14:45.162Z,51.00
2019-04-21T11:17:16.446Z,51.20
2019-04-21T11:19:47.118Z,50.80
2019-04-21T11:22:18.904Z,51.40
2019-04-21T11:24:49.366Z,52.70
2019-04-21T11:27:19.963Z,52.90
2019-04-21T11:29:51.686Z,53.30
2019-04-21T11:32:23.160Z,52.60
2019-04-21T11:34:54.904Z,53.00
2019-04-21T11:37:30.489Z,53.50
2019-04-21T11:40:08.546Z,53.70
2019-04-21T11:42:37.712Z,53.90
2019-04-21T11:45:08.645Z,53.80
2019-04-21T11:47:43.396Z,53.30
2019-04-21T11:50:14.974Z,53.30
2019-04-21T11:52:45.645Z,52.60
2019-04-21T11:55:16.605Z,50.80
2019-04-21T11:57:50.181Z,50.40
2019-04-21T12:00:21.532Z,49.40
2019-04-21T12:02:53.355Z,50.00
2019-04-21T12:05:23.863Z,50.10
2019-04-21T12:07:58.302Z,50.60
2019-04-21T12:10:27.183Z,51.30
2019-04-21T12:12:59.136Z,52.60
2019-04-21T12:15:31.294Z,52.80
2019-04-21T12:18:01.923Z,52.80
2019-04-21T12:20:33.452Z,52.70
2019-04-21T12:23:04.642Z,50.90
2019-04-21T12:25:39.013Z,50.60
2019-04-21T12:28:10.036Z,50.90
2019-04-21T12:30:41.974Z,48.60
2019-04-21T12:33:45.747Z,47.40
2019-04-21T12:36:17.771Z,44.00
2019-04-21T12:38:54.434Z,40.30
2019-04-21T12:41:20.720Z,38.50
2019-04-21T12:43:51.278Z,37.50
2019-04-21T12:46:22.111Z,36.40
2019-04-21T12:48:53.732Z,36.30
2019-04-21T12:51:24.259Z,35.10
2019-04-21T12:53:55.007Z,35.80
2019-04-21T12:56:27.531Z,35.60
2019-04-21T12:58:59.412Z,35.30
2019-04-21T13:01:30.752Z,34.00
2019-04-21T13:04:01.807Z,34.00
2019-04-21T13:06:33.923Z,33.40
2019-04-21T13:09:10.821Z,34.40
2019-04-21T13:11:39.459Z,35.40
2019-04-21T13:14:11.479Z,39.20
2019-04-21T13:16:43.519Z,40.30
2019-04-21T13:19:15.376Z,40.10
2019-04-21T13:21:45.978Z,40.40
2019-04-21T13:24:17.865Z,41.30
2019-04-21T13:26:53.634Z,43.10
2019-04-21T13:29:20.571Z,45.00
2019-04-21T13:31:52.153Z,47.00
2019-04-21T13:34:24.045Z,47.70
2019-04-21T13:36:54.763Z,47.60
2019-04-21T13:40:14.449Z,48.60
2019-04-21T13:42:36.609Z,48.30
2019-04-21T13:45:02.479Z,47.30
2019-04-21T13:47:32.709Z,47.50
2019-04-21T13:50:05.310Z,47.70
2019-04-21T13:52:36.525Z,48.20
2019-04-21T13:55:07.734Z,47.70
2019-04-21T13:57:38.800Z,47.70
2019-04-21T14:00:11.020Z,48.00
2019-04-21T14:02:42.668Z,47.90
2019-04-21T14:05:15.919Z,46.80
2019-04-21T14:07:46.846Z,47.10
2019-04-21T14:10:19.973Z,47.60
2019-04-21T14:12:50.705Z,47.60
2019-04-21T14:15:24.116Z,47.80
2019-04-21T14:17:54.899Z,48.30
2019-04-21T14:20:27.144Z,48.40
2019-04-21T14:23:10.302Z,49.00
2019-04-21T14:25:29.981Z,49.50
2019-04-21T14:28:01.966Z,50.30
2019-04-21T14:30:38.513Z,56.10
2019-04-21T14:33:10.017Z,57.60
2019-04-21T14:35:41.032Z,58.90
2019-04-21T14:38:11.585Z,56.80
2019-04-21T14:40:42.065Z,57.70
2019-04-21T14:43:12.470Z,58.30
2019-04-21T14:45:56.890Z,57.80
2019-04-21T14:48:45.391Z,56.30
2019-04-21T14:51:38.867Z,56.60
2019-04-21T14:54:20.580Z,56.40
2019-04-21T14:56:51.392Z,56.80
2019-04-21T14:59:24.492Z,56.70
2019-04-21T15:01:55.877Z,58.90
2019-04-21T15:04:27.906Z,70.80
2019-04-21T15:06:59.270Z,69.50
2019-04-21T15:09:31.525Z,66.00
2019-04-21T15:12:02.800Z,68.20
2019-04-21T15:14:33.799Z,67.80
2019-04-21T15:17:05.513Z,66.40
2019-04-21T15:19:36.452Z,67.10
2019-04-21T15:22:08.228Z,68.30
2019-04-21T15:24:40.318Z,67.60
2019-04-21T15:27:12.648Z,69.80
2019-04-21T15:29:44.844Z,74.20
2019-04-21T15:32:16.836Z,78.70
2019-04-21T15:34:47.871Z,77.00
2019-04-21T15:37:19.865Z,78.50
2019-04-21T15:39:50.963Z,79.40
2019-04-21T15:42:21.681Z,81.70
2019-04-21T15:44:52.456Z,86.30
2019-04-21T15:47:23.981Z,84.50
2019-04-21T15:50:03.043Z,81.40
2019-04-21T15:52:28.161Z,78.80
2019-04-21T15:55:03.351Z,77.60
2019-04-21T15:57:52.294Z,76.50
2019-04-21T16:00:38.490Z,76.10
2019-04-21T16:03:11.393Z,78.30
2019-04-21T16:05:42.625Z,78.60
2019-04-21T16:08:14.210Z,79.20
2019-04-21T16:10:51.850Z,79.50
2019-04-21T16:13:17.027Z,79.40
2019-04-21T16:15:48.825Z,78.40
2019-04-21T16:18:20.504Z,79.50
2019-04-21T16:20:51.616Z,79.00
2019-04-21T16:23:22.575Z,79.80
2019-04-21T16:25:54.640Z,81.80
2019-04-21T16:28:25.294Z,83.80
2019-04-21T16:30:56.225Z,87.40
2019-04-21T16:33:27.201Z,89.70
2019-04-21T16:35:58.033Z,91.00
2019-04-21T16:38:29.310Z,91.50
2019-04-21T16:41:04.489Z,92.60
2019-04-21T16:43:33.339Z,93.40
2019-04-21T16:46:06.688Z,94.10
2019-04-21T16:48:37.813Z,95.10
2019-04-21T16:51:09.888Z,96.00
2019-04-21T16:53:46.102Z,96.20
2019-04-21T16:56:41.801Z,96.40
2019-04-21T16:59:22.547Z,96.70
2019-04-21T17:01:54.426Z,96.60
2019-04-21T17:04:26.454Z,96.90
2019-04-21T17:06:58.799Z,97.00
2019-04-21T17:09:30.594Z,97.50
2019-04-21T17:12:04.042Z,97.60
2019-04-21T17:14:49.527Z,97.50
2019-04-21T17:17:32.607Z,97.90
2019-04-21T17:19:45.552Z,97.70
2019-04-21T17:22:13.747Z,97.20
2019-04-21T17:24:44.556Z,97.20
2019-04-21T17:27:15.404Z,97.10
2019-04-21T17:29:46.321Z,96.80
2019-04-21T17:32:18.379Z,96.70
2019-04-21T17:34:50.009Z,97.00
2019-04-21T17:37:24.984Z,97.00
2019-04-21T17:39:54.526Z,97.00
2019-04-21T17:42:35.409Z,97.30
2019-04-21T17:44:59.278Z,97.10
2019-04-21T17:47:43.331Z,97.20
2019-04-21T17:50:33.801Z,97.10
2019-04-21T17:53:11.208Z,97.10
2019-04-21T17:55:42.558Z,96.80
2019-04-21T17:58:27.860Z,96.90
2019-04-21T18:03:49.483Z,97.10
2019-04-21T18:06:07.500Z,97.30
2019-04-21T18:08:43.054Z,97.30
2019-04-21T18:11:05.736Z,97.20
2019-04-21T18:13:28.743Z,97.30
2019-04-21T18:16:09.706Z,97.00
2019-04-21T18:18:32.912Z,97.10
2019-04-21T18:21:09.585Z,97.50
2019-04-21T18:23:54.863Z,97.40
2019-04-21T18:26:31.888Z,97.50
2019-04-21T18:28:54.924Z,97.80
2019-04-21T18:31:27.006Z,98.30
2019-04-21T18:34:15.720Z,98.80
2019-04-21T18:36:52.138Z,99.10
2019-04-21T18:39:49.667Z,99.10
2019-04-21T18:42:47.738Z,99.90
2019-04-21T18:48:18.992Z,99.90
2019-04-21T18:50:58.890Z,99.90
2019-04-21T18:54:17.707Z,99.90
2019-04-21T18:56:27.668Z,99.90
2019-04-21T18:58:58.451Z,99.90
2019-04-21T19:01:31.776Z,99.90
2019-04-21T19:04:05.344Z,99.90
2019-04-21T19:06:51.667Z,99.90
2019-04-21T19:09:35.907Z,99.90
2019-04-21T19:12:05.295Z,99.90
2019-04-21T19:14:35.722Z,99.90
2019-04-21T19:17:17.041Z,99.90
2019-04-21T19:19:46.676Z,99.90
2019-04-21T19:22:10.439Z,99.90
2019-04-21T19:24:48.989Z,99.90
2019-04-21T19:27:19.245Z,99.90
2019-04-21T19:29:58.254Z,99.90
2019-04-21T19:34:40.468Z,99.90
2019-04-21T19:37:14.378Z,99.90
2019-04-21T19:39:53.878Z,99.90
2019-04-21T19:42:22.759Z,99.90
2019-04-21T19:44:59.222Z,99.90
2019-04-21T19:47:41.505Z,99.90
2019-04-21T19:50:05.941Z,99.90
2019-04-21T19:52:34.572Z,99.90
2019-04-21T19:54:54.436Z,99.90
2019-04-21T19:57:25.388Z,99.90
2019-04-21T20:00:00.277Z,99.90
2019-04-21T20:02:30.133Z,99.90
2019-04-21T20:05:07.074Z,99.90
2019-04-21T20:07:49.763Z,99.90
2019-04-21T20:10:28.509Z,99.90
2019-04-21T20:13:03.327Z,99.90
2019-04-21T20:15:35.825Z,99.90
2019-04-21T20:17:58.530Z,99.90
2019-04-21T20:20:17.358Z,99.90
2019-04-21T20:22:51.827Z,99.90
2019-04-21T20:25:23.187Z,99.90
2019-04-21T20:28:03.008Z,99.90
2019-04-21T20:30:42.646Z,99.90
2019-04-21T20:33:37.044Z,99.90
2019-04-21T20:35:59.298Z,99.90
2019-04-21T20:38:17.379Z,99.90
2019-04-21T20:40:45.290Z,99.90
2019-04-21T20:43:25.110Z,99.90
2019-04-21T20:46:01.092Z,99.90
2019-04-21T20:48:25.364Z,99.90
2019-04-21T20:51:09.244Z,99.90
2019-04-21T20:53:30.209Z,99.90
2019-04-21T20:56:00.949Z,99.90
2019-04-21T20:58:34.359Z,99.90
2019-04-21T21:01:26.813Z,99.90
2019-04-21T21:03:45.840Z,99.90
2019-04-21T21:06:15.796Z,99.90
2019-04-21T21:08:44.578Z,99.90
2019-04-21T21:11:21.302Z,99.90
2019-04-21T21:13:53.679Z,99.90
2019-04-21T21:16:29.662Z,99.90
2019-04-21T21:19:18.730Z,99.90
2019-04-21T21:21:24.412Z,99.90
2019-04-21T21:24:00.562Z,99.90
2019-04-21T21:26:32.578Z,99.90
2019-04-21T21:28:57.544Z,99.90
2019-04-21T21:31:38.736Z,99.90
2019-04-21T21:34:16.543Z,99.90
2019-04-21T21:36:43.466Z,99.90
2019-04-21T21:39:15.464Z,99.90
2019-04-21T21:41:34.533Z,99.90
2019-04-21T21:44:08.773Z,99.90
2019-04-21T21:46:48.313Z,99.90
2019-04-21T21:49:23.683Z,99.90
2019-04-21T21:51:49.958Z,99.90
2019-04-21T21:54:09.975Z,99.90
2019-04-21T21:56:40.781Z,99.90
2019-04-21T21:59:17.939Z,99.90
2019-04-21T22:01:49.140Z,99.90
2019-04-21T22:04:25.837Z,99.90
2019-04-21T22:06:59.908Z,99.90
2019-04-21T22:09:22.057Z,99.90
2019-04-21T22:11:56.508Z,99.90
2019-04-21T22:14:32.795Z,99.90
2019-04-21T22:17:10.996Z,99.90
2019-04-21T22:19:52.516Z,99.90
2019-04-21T22:22:21.368Z,99.90
2019-04-21T22:24:52.415Z,99.90
2019-04-21T22:27:07.256Z,99.90
2019-04-21T22:29:44.420Z,99.90
2019-04-21T22:32:15.744Z,99.90
2019-04-21T22:34:48.698Z,99.90
2019-04-21T22:37:30.007Z,99.90
2019-04-21T22:40:02.133Z,99.90
2019-04-21T22:42:26.630Z,99.90
2019-04-21T22:44:52.329Z,99.90
2019-04-21T22:47:26.926Z,99.90
2019-04-21T22:49:56.777Z,99.90
2019-04-21T22:52:29.872Z,99.90
2019-04-21T22:55:03.311Z,99.90
2019-04-21T22:57:39.144Z,99.90
2019-04-21T23:00:08.057Z,99.90
2019-04-21T23:02:39.277Z,99.90
2019-04-21T23:05:11.388Z,99.90
2019-04-21T23:07:51.235Z,99.90
2019-04-21T23:10:14.560Z,99.90
2019-04-21T23:12:45.845Z,99.90
2019-04-21T23:15:20.479Z,99.90
2019-04-21T23:18:06.833Z,99.90
2019-04-21T23:20:41.988Z,99.90
2019-04-21T23:23:11.876Z,99.90
2019-04-21T23:25:41.713Z,99.90
2019-04-21T23:28:12.446Z,99.90
2019-04-21T23:30:57.242Z,99.90
2019-04-21T23:33:08.143Z,99.90
2019-04-21T23:35:40.040Z,99.90
2019-04-21T23:38:10.247Z,99.90
2019-04-21T23:40:46.296Z,99.90
2019-04-21T23:43:17.258Z,99.90
2019-04-21T23:45:45.317Z,99.90
2019-04-21T23:48:29.804Z,99.90
2019-04-21T23:50:56.132Z,99.90
2019-04-21T23:53:19.775Z,99.90
2019-04-21T23:55:50.267Z,99.90
2019-04-21T23:58:25.214Z,99.90
